Time;durP1;ratioP1;P1;durP2;ratioP2;P2;SDS_P1;SDS_P2;PMS_P1;PMS_P2;Temp;Humidity;BMP_temperature;BMP_pressure;BME280_temperature;BME280_humidity;BME280_pressure;Samples;Min_cycle;Max_cycle;Signal;HPM_P1;HPM_P2
2022/06/24 00:02:10;;;;;;;4.87;4.47;;;;;;;;;;5032372;28;20578;-87
2022/06/24 00:04:37;;;;;;;3.93;3.50;;;;;;;;;;5032655;28;20718;-87
2022/06/24 00:07:15;;;;;;;5.00;2.93;;;;;;;;;;5032567;28;20207;-87
2022/06/24 00:09:44;;;;;;;3.43;3.20;;;;;;;;;;5032074;28;20198;-87
2022/06/24 00:12:13;;;;;;;4.27;3.70;;;;;;;;;;5033078;28;20334;-87
2022/06/24 00:14:42;;;;;;;4.07;3.70;;;;;;;;;;5035700;28;20197;-86
2022/06/24 00:17:10;;;;;;;3.70;3.40;;;;;;;;;;5036125;28;20615;-87
2022/06/24 00:19:52;;;;;;;5.03;3.97;;;;;;;;;;5035876;28;20199;-87
2022/06/24 00:22:20;;;;;;;3.50;3.20;;;;;;;;;;5035959;28;20242;-87
2022/06/24 00:24:48;;;;;;;3.73;3.17;;;;;;;;;;5035510;28;20253;-87
2022/06/24 00:27:19;;;;;;;3.87;3.50;;;;;;;;;;5035789;28;20656;-87
2022/06/24 00:29:47;;;;;;;3.83;3.53;;;;;;;;;;5035768;28;20621;-87
2022/06/24 00:32:14;;;;;;;6.23;4.00;;;;;;;;;;5035592;28;20592;-86
2022/06/24 00:34:42;;;;;;;4.00;3.70;;;;;;;;;;5035326;28;20259;-87
2022/06/24 00:37:24;;;;;;;4.00;3.67;;;;;;;;;;5035544;28;20575;-87
2022/06/24 00:39:52;;;;;;;4.63;3.30;;;;;;;;;;5035352;28;20211;-86
2022/06/24 00:42:20;;;;;;;7.50;3.43;;;;;;;;;;5035369;28;20199;-87
2022/06/24 00:44:51;;;;;;;6.03;3.63;;;;;;;;;;5035267;28;20202;-87
2022/06/24 00:47:18;;;;;;;3.47;3.17;;;;;;;;;;5035205;28;20190;-87
2022/06/24 00:49:47;;;;;;;3.80;3.50;;;;;;;;;;5035033;28;20308;-87
2022/06/24 00:52:15;;;;;;;4.00;3.70;;;;;;;;;;5035007;28;20195;-87
2022/06/24 00:54:44;;;;;;;3.87;3.50;;;;;;;;;;5034944;28;20257;-87
2022/06/24 00:57:12;;;;;;;3.77;3.47;;;;;;;;;;5034951;28;20214;-87
2022/06/24 00:59:40;;;;;;;4.03;3.73;;;;;;;;;;5035147;28;20209;-87
2022/06/24 01:02:08;;;;;;;4.07;3.77;;;;;;;;;;5035065;28;20200;-86
2022/06/24 01:04:35;;;;;;;3.60;3.30;;;;;;;;;;5034942;28;20668;-87
2022/06/24 01:07:03;;;;;;;3.57;3.27;;;;;;;;;;5034693;28;20217;-86
2022/06/24 01:09:30;;;;;;;5.63;3.37;;;;;;;;;;5034704;28;20227;-87
2022/06/24 01:11:57;;;;;;;4.90;3.87;;;;;;;;;;5034713;28;20561;-86
2022/06/24 01:14:26;;;;;;;3.77;3.47;;;;;;;;;;5034632;28;20195;-87
2022/06/24 01:16:53;;;;;;;4.20;3.90;;;;;;;;;;5035148;28;20601;-87
2022/06/24 01:19:20;;;;;;;3.50;3.20;;;;;;;;;;5034911;28;20205;-87
2022/06/24 01:21:50;;;;;;;3.83;3.53;;;;;;;;;;5034677;28;20265;-87
2022/06/24 01:24:20;;;;;;;4.47;3.97;;;;;;;;;;5033560;28;20211;-86
2022/06/24 01:26:48;;;;;;;4.10;3.67;;;;;;;;;;5034533;28;20191;-87
2022/06/24 01:29:16;;;;;;;4.57;4.10;;;;;;;;;;5034186;28;20226;-87
2022/06/24 01:31:43;;;;;;;3.97;3.67;;;;;;;;;;5034537;28;20192;-86
2022/06/24 01:34:10;;;;;;;6.17;4.27;;;;;;;;;;5034260;28;20202;-87
2022/06/24 01:36:38;;;;;;;5.93;5.07;;;;;;;;;;5034288;28;20624;-87
2022/06/24 01:39:06;;;;;;;3.87;3.57;;;;;;;;;;5034064;28;20205;-87
2022/06/24 01:41:34;;;;;;;4.63;4.10;;;;;;;;;;5034105;28;20197;-87
2022/06/24 01:44:01;;;;;;;4.53;4.13;;;;;;;;;;5034081;28;20198;-87
2022/06/24 01:46:28;;;;;;;3.57;3.37;;;;;;;;;;5033909;28;20253;-87
2022/06/24 01:48:56;;;;;;;4.17;3.87;;;;;;;;;;5034172;28;20303;-87
2022/06/24 01:51:24;;;;;;;3.93;3.57;;;;;;;;;;5033913;28;20203;-87
2022/06/24 01:53:51;;;;;;;4.70;3.57;;;;;;;;;;5033724;28;20745;-86
2022/06/24 01:56:19;;;;;;;3.50;3.20;;;;;;;;;;5033569;28;20198;-86
2022/06/24 01:58:47;;;;;;;4.97;3.30;;;;;;;;;;5033789;28;20663;-87
2022/06/24 02:01:14;;;;;;;6.00;3.60;;;;;;;;;;5033703;28;20281;-86
2022/06/24 02:03:43;;;;;;;3.37;3.00;;;;;;;;;;5033637;28;20214;-86
2022/06/24 02:06:11;;;;;;;4.17;3.40;;;;;;;;;;5033756;28;20221;-86
2022/06/24 02:08:39;;;;;;;3.90;3.60;;;;;;;;;;5033719;28;20222;-86
2022/06/24 02:13:57;;;;;;;7.60;4.27;;;;;;;;;;5034064;28;20268;-87
2022/06/24 02:16:24;;;;;;;4.40;3.57;;;;;;;;;;5033532;28;20187;-86
2022/06/24 02:18:52;;;;;;;5.40;2.93;;;;;;;;;;5033388;28;20202;-86
2022/06/24 02:21:20;;;;;;;4.63;3.70;;;;;;;;;;5033042;28;20770;-87
2022/06/24 02:23:47;;;;;;;6.00;4.17;;;;;;;;;;5033231;28;20203;-86
2022/06/24 02:26:15;;;;;;;3.20;3.00;;;;;;;;;;5032919;28;20198;-87
2022/06/24 02:28:42;;;;;;;3.57;3.27;;;;;;;;;;5032908;28;20778;-87
2022/06/24 02:31:10;;;;;;;4.27;3.30;;;;;;;;;;5033253;28;20202;-87
2022/06/24 02:33:38;;;;;;;2.80;2.60;;;;;;;;;;5033304;28;20202;-86
2022/06/24 02:36:06;;;;;;;2.70;2.50;;;;;;;;;;5046719;28;20201;-86
2022/06/24 02:38:34;;;;;;;3.07;2.87;;;;;;;;;;5053610;28;20662;-86
2022/06/24 02:41:01;;;;;;;3.30;3.00;;;;;;;;;;5044794;28;20691;-87
2022/06/24 02:43:32;;;;;;;2.70;2.50;;;;;;;;;;5050467;28;20279;-86
2022/06/24 02:46:01;;;;;;;2.97;2.67;;;;;;;;;;5043034;28;20203;-87
2022/06/24 02:48:30;;;;;;;3.43;2.73;;;;;;;;;;5032448;28;20737;-86
2022/06/24 02:50:58;;;;;;;4.40;2.93;;;;;;;;;;5032850;28;20256;-87
2022/06/24 02:53:26;;;;;;;3.33;3.03;;;;;;;;;;5032852;28;20186;-87
2022/06/24 02:55:55;;;;;;;3.47;3.17;;;;;;;;;;5032710;28;20218;-87
2022/06/24 02:58:22;;;;;;;3.87;3.57;;;;;;;;;;5039151;28;20563;-87
2022/06/24 03:00:50;;;;;;;4.43;2.87;;;;;;;;;;5032946;28;20252;-87
2022/06/24 03:03:18;;;;;;;2.80;2.60;;;;;;;;;;5033882;28;20206;-88
2022/06/24 03:05:47;;;;;;;2.93;2.73;;;;;;;;;;5033109;28;20585;-87
2022/06/24 03:08:16;;;;;;;3.77;2.90;;;;;;;;;;5032831;28;20234;-87
2022/06/24 03:10:43;;;;;;;3.07;2.87;;;;;;;;;;5042293;28;20193;-87
2022/06/24 03:13:11;;;;;;;4.90;2.50;;;;;;;;;;5052700;28;20198;-87
2022/06/24 03:15:39;;;;;;;3.90;3.53;;;;;;;;;;5052433;28;20205;-88
2022/06/24 03:18:06;;;;;;;4.67;3.03;;;;;;;;;;5052313;28;20194;-87
2022/06/24 03:20:33;;;;;;;3.90;3.00;;;;;;;;;;5052226;28;20226;-87
2022/06/24 03:23:02;;;;;;;3.43;2.63;;;;;;;;;;5052450;28;20201;-88
2022/06/24 03:25:29;;;;;;;3.63;2.50;;;;;;;;;;5050446;28;20260;-85
2022/06/24 03:32:11;;;;;;;2.93;2.70;;;;;;;;;;4857434;29;20222;-87
2022/06/24 03:34:38;;;;;;;3.27;2.77;;;;;;;;;;4857519;29;20281;-87
2022/06/24 03:37:06;;;;;;;2.63;2.43;;;;;;;;;;4858545;29;20294;-87
2022/06/24 03:39:34;;;;;;;2.63;2.43;;;;;;;;;;4858319;29;20238;-87
2022/06/24 03:42:01;;;;;;;4.83;2.33;;;;;;;;;;4858494;29;20597;-87
2022/06/24 03:44:29;;;;;;;3.03;2.80;;;;;;;;;;4858337;29;20202;-87
2022/06/24 03:46:56;;;;;;;3.17;2.30;;;;;;;;;;4858736;29;20221;-86
2022/06/24 03:49:23;;;;;;;3.00;2.80;;;;;;;;;;4861632;29;20227;-87
2022/06/24 03:51:50;;;;;;;2.97;2.43;;;;;;;;;;4861405;29;20752;-87
2022/06/24 03:54:17;;;;;;;4.30;3.13;;;;;;;;;;4918142;28;20197;-87
2022/06/24 03:56:45;;;;;;;2.53;2.30;;;;;;;;;;5056319;28;20205;-87
2022/06/24 03:59:13;;;;;;;2.50;2.30;;;;;;;;;;5055840;28;20202;-87
2022/06/24 04:01:40;;;;;;;3.63;2.30;;;;;;;;;;5056239;28;20205;-86
2022/06/24 04:04:07;;;;;;;6.20;2.87;;;;;;;;;;5055861;28;20653;-87
2022/06/24 04:06:34;;;;;;;2.87;2.67;;;;;;;;;;5055755;28;20194;-87
2022/06/24 04:09:01;;;;;;;2.90;2.70;;;;;;;;;;5055250;28;20345;-86
2022/06/24 04:11:28;;;;;;;3.20;2.83;;;;;;;;;;5055641;28;20196;-86
2022/06/24 04:13:57;;;;;;;3.40;2.53;;;;;;;;;;5055611;28;20198;-87
2022/06/24 04:16:24;;;;;;;4.07;3.40;;;;;;;;;;5055582;28;20240;-87
2022/06/24 04:18:51;;;;;;;2.63;2.43;;;;;;;;;;5055357;28;20654;-86
2022/06/24 04:21:19;;;;;;;8.30;3.17;;;;;;;;;;5055683;28;20229;-87
2022/06/24 04:23:49;;;;;;;2.60;2.40;;;;;;;;;;5055352;28;20690;-87
2022/06/24 04:26:16;;;;;;;2.57;2.20;;;;;;;;;;5055590;28;20267;-87
2022/06/24 04:28:43;;;;;;;2.73;2.53;;;;;;;;;;5055637;28;20205;-87
2022/06/24 04:31:12;;;;;;;3.23;3.03;;;;;;;;;;5055529;28;20290;-88
2022/06/24 04:33:39;;;;;;;2.73;2.50;;;;;;;;;;5055613;28;20257;-89
2022/06/24 04:36:11;;;;;;;3.57;2.57;;;;;;;;;;5055399;28;20225;-87
2022/06/24 04:38:38;;;;;;;2.90;2.70;;;;;;;;;;5055843;28;20236;-88
2022/06/24 04:41:11;;;;;;;2.30;2.20;;;;;;;;;;5055296;28;20198;-87
2022/06/24 04:43:39;;;;;;;2.80;2.60;;;;;;;;;;5055014;28;20227;-87
2022/06/24 04:46:06;;;;;;;3.00;2.80;;;;;;;;;;5055095;28;20207;-87
2022/06/24 04:48:35;;;;;;;2.87;2.67;;;;;;;;;;5054925;28;20198;-87
2022/06/24 04:51:02;;;;;;;7.83;2.40;;;;;;;;;;5054408;28;20702;-87
2022/06/24 04:53:29;;;;;;;3.07;2.17;;;;;;;;;;5055122;28;20202;-87
2022/06/24 04:55:56;;;;;;;2.63;2.43;;;;;;;;;;5054964;28;20205;-87
2022/06/24 04:58:23;;;;;;;6.30;2.37;;;;;;;;;;5054584;28;20202;-86
2022/06/24 05:00:50;;;;;;;2.60;2.30;;;;;;;;;;5054907;28;20204;-87
2022/06/24 05:03:18;;;;;;;3.33;2.47;;;;;;;;;;5054266;28;20195;-87
2022/06/24 05:05:46;;;;;;;2.43;2.23;;;;;;;;;;5054551;28;20582;-87
2022/06/24 05:08:13;;;;;;;2.27;2.07;;;;;;;;;;5053686;28;20202;-87
2022/06/24 05:10:42;;;;;;;6.47;2.60;;;;;;;;;;5054274;28;20279;-86
2022/06/24 05:13:09;;;;;;;2.97;2.07;;;;;;;;;;5054757;28;20235;-87
2022/06/24 05:15:36;;;;;;;2.50;2.20;;;;;;;;;;5054567;28;20235;-87
2022/06/24 05:18:03;;;;;;;3.40;2.37;;;;;;;;;;5054525;28;20200;-87
2022/06/24 05:20:30;;;;;;;4.13;2.03;;;;;;;;;;5054029;28;20725;-87
2022/06/24 05:23:02;;;;;;;2.00;1.80;;;;;;;;;;5054364;28;20203;-87
2022/06/24 05:25:29;;;;;;;3.10;2.27;;;;;;;;;;5053868;28;20755;-87
2022/06/24 05:27:56;;;;;;;3.37;2.00;;;;;;;;;;5054235;28;20199;-87
2022/06/24 05:30:23;;;;;;;2.53;2.27;;;;;;;;;;5053818;28;20328;-86
2022/06/24 05:32:50;;;;;;;4.60;2.37;;;;;;;;;;5053824;28;20544;-87
2022/06/24 05:35:24;;;;;;;2.07;1.93;;;;;;;;;;5053811;28;20193;-86
2022/06/24 05:37:51;;;;;;;2.90;2.03;;;;;;;;;;5054109;28;20197;-87
2022/06/24 05:40:37;;;;;;;3.77;2.37;;;;;;;;;;5053739;28;20208;-87
2022/06/24 05:43:14;;;;;;;5.17;2.50;;;;;;;;;;5053942;28;20201;-86
2022/06/24 05:45:44;;;;;;;2.73;2.37;;;;;;;;;;5053729;28;20190;-87
2022/06/24 05:48:11;;;;;;;5.33;2.50;;;;;;;;;;5053812;28;20247;-86
2022/06/24 05:50:47;;;;;;;2.63;2.40;;;;;;;;;;5053509;28;20229;-87
2022/06/24 05:56:06;;;;;;;4.83;2.57;;;;;;;;;;5027751;28;20194;-87
2022/06/24 05:58:33;;;;;;;11.80;2.50;;;;;;;;;;5053436;28;20201;-86
2022/06/24 06:01:00;;;;;;;3.53;2.37;;;;;;;;;;5053678;28;20201;-87
2022/06/24 06:03:36;;;;;;;3.63;2.20;;;;;;;;;;5053149;28;20694;-87
2022/06/24 06:06:12;;;;;;;3.17;2.33;;;;;;;;;;5053566;28;20670;-87
2022/06/24 06:08:46;;;;;;;2.80;2.57;;;;;;;;;;5053575;28;20204;-87
2022/06/24 06:11:19;;;;;;;10.50;2.63;;;;;;;;;;5052632;28;20226;-87
2022/06/24 06:13:51;;;;;;;7.23;2.03;;;;;;;;;;5053267;28;20643;-87
2022/06/24 06:16:18;;;;;;;2.30;2.10;;;;;;;;;;5052851;28;20582;-87
2022/06/24 06:18:55;;;;;;;2.30;1.97;;;;;;;;;;5053364;28;20576;-87
2022/06/24 06:21:24;;;;;;;3.60;2.10;;;;;;;;;;5052632;28;20240;-86
2022/06/24 06:23:52;;;;;;;2.33;2.13;;;;;;;;;;5052909;28;20205;-87
2022/06/24 06:26:29;;;;;;;3.57;2.00;;;;;;;;;;5053190;28;20201;-87
2022/06/24 06:29:08;;;;;;;2.60;2.20;;;;;;;;;;5053016;28;20221;-87
2022/06/24 06:31:35;;;;;;;2.30;2.10;;;;;;;;;;5053143;28;20240;-87
2022/06/24 06:34:06;;;;;;;4.63;2.20;;;;;;;;;;5052949;28;20627;-87
2022/06/24 06:36:36;;;;;;;5.03;2.57;;;;;;;;;;5052991;28;20197;-87
2022/06/24 06:39:09;;;;;;;3.43;2.17;;;;;;;;;;5052653;28;20197;-87
2022/06/24 06:41:41;;;;;;;3.20;2.67;;;;;;;;;;5052699;28;20574;-87
2022/06/24 06:44:23;;;;;;;2.13;1.93;;;;;;;;;;5052551;28;20237;-87
2022/06/24 06:46:56;;;;;;;4.93;2.00;;;;;;;;;;5052623;28;20197;-87
2022/06/24 06:49:23;;;;;;;3.60;2.57;;;;;;;;;;5052596;28;20213;-87
2022/06/24 06:51:56;;;;;;;3.50;2.33;;;;;;;;;;5052184;28;20200;-87
2022/06/24 06:54:26;;;;;;;2.40;2.20;;;;;;;;;;5052789;28;20194;-87
2022/06/24 06:56:57;;;;;;;2.33;2.20;;;;;;;;;;5052918;28;20198;-87
2022/06/24 06:59:25;;;;;;;2.63;1.97;;;;;;;;;;5052423;28;20210;-87
2022/06/24 07:01:58;;;;;;;4.20;2.50;;;;;;;;;;5052722;28;20202;-87
2022/06/24 07:04:28;;;;;;;3.73;2.43;;;;;;;;;;5052492;28;20217;-87
2022/06/24 07:06:58;;;;;;;3.13;2.30;;;;;;;;;;5052360;28;20259;-87
2022/06/24 07:09:44;;;;;;;2.30;2.10;;;;;;;;;;5052316;28;20217;-87
2022/06/24 07:12:22;;;;;;;6.17;2.77;;;;;;;;;;5052377;28;20634;-87
2022/06/24 07:14:50;;;;;;;2.63;2.43;;;;;;;;;;5052409;28;20200;-87
2022/06/24 07:17:17;;;;;;;2.80;2.60;;;;;;;;;;5052842;28;20572;-87
2022/06/24 07:19:44;;;;;;;5.33;2.33;;;;;;;;;;5050922;28;20228;-87
2022/06/24 07:22:15;;;;;;;3.27;2.30;;;;;;;;;;5011756;28;20681;-87
2022/06/24 07:25:00;;;;;;;3.10;2.17;;;;;;;;;;5012204;28;20230;-88
2022/06/24 07:27:47;;;;;;;2.03;1.93;;;;;;;;;;5012281;28;20204;-87
2022/06/24 07:30:18;;;;;;;3.97;2.40;;;;;;;;;;5012091;28;20730;-88
2022/06/24 07:32:52;;;;;;;3.33;3.03;;;;;;;;;;5012498;28;20217;-87
2022/06/24 07:35:28;;;;;;;3.03;2.10;;;;;;;;;;5012457;28;20195;-87
2022/06/24 07:37:55;;;;;;;2.23;2.03;;;;;;;;;;5012641;28;20195;-87
2022/06/24 07:40:26;;;;;;;2.57;2.37;;;;;;;;;;5012544;28;20203;-87
2022/06/24 07:43:03;;;;;;;4.37;3.10;;;;;;;;;;5012075;28;20672;-87
2022/06/24 07:45:30;;;;;;;2.90;2.43;;;;;;;;;;5012448;28;20199;-87
2022/06/24 07:47:58;;;;;;;3.80;2.40;;;;;;;;;;5012357;28;20200;-87
2022/06/24 07:50:25;;;;;;;4.83;2.30;;;;;;;;;;5012346;28;20631;-88
2022/06/24 07:52:54;;;;;;;4.37;2.67;;;;;;;;;;5012512;28;20195;-86
2022/06/24 07:58:07;;;;;;;2.53;2.40;;;;;;;;;;5012749;28;20249;-87
2022/06/24 08:01:01;;;;;;;3.33;2.40;;;;;;;;;;5011979;28;20192;-87
2022/06/24 08:03:37;;;;;;;2.53;2.33;;;;;;;;;;5011814;28;20207;-87
2022/06/24 08:06:04;;;;;;;3.67;2.83;;;;;;;;;;5012066;28;20206;-86
2022/06/24 08:08:31;;;;;;;2.80;2.40;;;;;;;;;;5012038;28;20254;-86
2022/06/24 08:10:58;;;;;;;4.87;2.53;;;;;;;;;;5011804;28;20235;-87
2022/06/24 08:13:40;;;;;;;2.53;2.33;;;;;;;;;;5012007;28;20595;-87
2022/06/24 08:16:07;;;;;;;6.27;2.60;;;;;;;;;;5011886;28;20203;-87
2022/06/24 08:18:37;;;;;;;2.70;2.50;;;;;;;;;;5011827;28;20200;-86
2022/06/24 08:21:04;;;;;;;2.33;2.03;;;;;;;;;;5033447;28;20323;-87
2022/06/24 08:23:31;;;;;;;2.57;2.30;;;;;;;;;;5051506;28;20198;-87
2022/06/24 08:25:58;;;;;;;6.33;4.57;;;;;;;;;;5051542;28;20586;-87
2022/06/24 08:28:39;;;;;;;2.97;2.33;;;;;;;;;;5051345;28;20205;-87
2022/06/24 08:31:13;;;;;;;3.50;2.40;;;;;;;;;;5051577;28;20244;-87
2022/06/24 08:33:40;;;;;;;5.03;2.70;;;;;;;;;;5053062;28;20197;-87
2022/06/24 08:36:08;;;;;;;2.77;2.30;;;;;;;;;;5055242;28;20569;-87
2022/06/24 08:38:38;;;;;;;2.03;1.93;;;;;;;;;;5054916;28;20640;-87
2022/06/24 08:41:05;;;;;;;4.70;2.33;;;;;;;;;;5054788;28;20622;-87
2022/06/24 08:43:34;;;;;;;3.40;2.23;;;;;;;;;;5054866;28;20217;-86
2022/06/24 08:46:09;;;;;;;3.20;2.17;;;;;;;;;;5055036;28;20580;-88
2022/06/24 08:48:39;;;;;;;3.00;2.50;;;;;;;;;;5054428;28;20193;-87
2022/06/24 08:51:07;;;;;;;3.13;2.83;;;;;;;;;;5056244;28;20623;-87
2022/06/24 08:53:42;;;;;;;3.70;2.10;;;;;;;;;;5055076;28;20255;-87
2022/06/24 08:56:09;;;;;;;3.87;2.57;;;;;;;;;;5054475;28;20194;-86
2022/06/24 08:58:37;;;;;;;2.07;1.97;;;;;;;;;;5054347;28;20195;-87
2022/06/24 09:01:04;;;;;;;3.43;2.40;;;;;;;;;;5054710;28;20225;-86
2022/06/24 09:03:36;;;;;;;3.43;2.97;;;;;;;;;;5054649;28;20201;-87
2022/06/24 09:06:12;;;;;;;4.83;2.50;;;;;;;;;;5054343;28;20198;-87
2022/06/24 09:08:39;;;;;;;4.13;2.33;;;;;;;;;;5054319;28;20705;-86
2022/06/24 09:11:07;;;;;;;5.67;2.50;;;;;;;;;;5054154;28;20297;-87
2022/06/24 09:13:45;;;;;;;2.50;2.27;;;;;;;;;;5053501;28;20206;-87
2022/06/24 09:16:17;;;;;;;3.03;2.70;;;;;;;;;;5054450;28;20198;-87
2022/06/24 09:18:52;;;;;;;4.43;2.60;;;;;;;;;;5054351;28;20205;-87
2022/06/24 09:21:24;;;;;;;2.70;2.50;;;;;;;;;;5054171;28;20717;-86
2022/06/24 09:23:53;;;;;;;4.17;2.80;;;;;;;;;;5053810;28;20190;-86
2022/06/24 09:26:31;;;;;;;2.67;2.47;;;;;;;;;;5054267;28;20198;-86
2022/06/24 09:28:59;;;;;;;2.37;2.17;;;;;;;;;;5054034;28;20629;-86
2022/06/24 09:31:36;;;;;;;3.07;2.60;;;;;;;;;;5053830;28;20229;-85
2022/06/24 09:34:12;;;;;;;3.00;2.80;;;;;;;;;;5054056;28;20280;-85
2022/06/24 09:36:41;;;;;;;3.27;2.93;;;;;;;;;;5053726;28;20704;-85
2022/06/24 09:39:10;;;;;;;3.17;2.87;;;;;;;;;;5053628;28;20686;-85
2022/06/24 09:41:48;;;;;;;2.53;2.30;;;;;;;;;;5053917;28;20197;-85
2022/06/24 09:44:16;;;;;;;2.53;2.33;;;;;;;;;;5052921;28;20205;-85
2022/06/24 09:47:02;;;;;;;2.50;2.30;;;;;;;;;;5053319;28;20208;-85
2022/06/24 09:49:30;;;;;;;2.67;2.17;;;;;;;;;;5053425;28;20643;-85
2022/06/24 09:52:01;;;;;;;3.33;2.70;;;;;;;;;;5053560;28;20252;-85
2022/06/24 09:54:31;;;;;;;2.60;2.40;;;;;;;;;;5053449;28;20202;-85
2022/06/24 09:57:07;;;;;;;6.57;2.10;;;;;;;;;;5053139;28;20571;-85
2022/06/24 10:02:21;;;;;;;4.10;2.30;;;;;;;;;;5053915;28;20185;-85
2022/06/24 10:04:52;;;;;;;2.40;2.20;;;;;;;;;;5052810;28;20289;-86
2022/06/24 10:07:26;;;;;;;2.90;2.70;;;;;;;;;;5052858;28;20740;-85
2022/06/24 10:09:54;;;;;;;3.00;2.70;;;;;;;;;;5053126;28;20202;-85
2022/06/24 10:12:24;;;;;;;2.60;2.40;;;;;;;;;;5053343;28;20226;-85
2022/06/24 10:14:55;;;;;;;2.67;2.47;;;;;;;;;;5052505;28;20202;-85
2022/06/24 10:17:30;;;;;;;2.92;2.42;;;;;;;;;;5052886;28;20209;-85
2022/06/24 10:20:03;;;;;;;2.42;2.22;;;;;;;;;;5050615;28;20230;-86
2022/06/24 10:22:42;;;;;;;2.95;2.30;;;;;;;;;;5032890;28;20187;-85
2022/06/24 10:25:10;;;;;;;2.60;2.40;;;;;;;;;;5032480;28;20194;-86
2022/06/24 10:28:14;;;;;;;2.40;2.20;;;;;;;;;;5032844;28;20375;-86
2022/06/24 10:30:58;;;;;;;3.00;2.55;;;;;;;;;;5032883;28;20198;-86
2022/06/24 10:33:36;;;;;;;3.10;2.55;;;;;;;;;;5032614;28;20575;-86
2022/06/24 10:36:07;;;;;;;3.73;2.90;;;;;;;;;;5032489;28;20198;-86
2022/06/24 10:38:49;;;;;;;2.53;2.28;;;;;;;;;;5032500;28;20575;-86
2022/06/24 10:41:37;;;;;;;2.13;2.03;;;;;;;;;;5032958;28;20217;-86
2022/06/24 10:44:22;;;;;;;3.25;2.55;;;;;;;;;;5032291;28;20198;-86
2022/06/24 10:47:29;;;;;;;3.85;2.72;;;;;;;;;;5032466;28;20636;-87
2022/06/24 10:50:00;;;;;;;4.25;2.47;;;;;;;;;;5032466;28;20191;-86
2022/06/24 10:52:39;;;;;;;2.38;2.17;;;;;;;;;;5032228;28;20223;-86
2022/06/24 10:55:42;;;;;;;2.10;2.00;;;;;;;;;;5032095;28;20205;-86
2022/06/24 10:58:19;;;;;;;2.45;2.22;;;;;;;;;;5032208;28;20202;-85
2022/06/24 11:01:01;;;;;;;2.70;2.50;;;;;;;;;;5032141;28;20206;-86
2022/06/24 11:03:38;;;;;;;6.25;2.38;;;;;;;;;;5031760;28;20213;-85
2022/06/24 11:06:12;;;;;;;2.13;2.03;;;;;;;;;;5032700;28;20187;-86
2022/06/24 11:08:40;;;;;;;3.38;2.78;;;;;;;;;;5032112;28;20199;-85
2022/06/24 11:11:29;;;;;;;2.95;2.75;;;;;;;;;;5032065;28;20244;-85
2022/06/24 11:13:56;;;;;;;4.82;2.38;;;;;;;;;;5031575;28;20256;-85
2022/06/24 11:16:32;;;;;;;4.18;2.65;;;;;;;;;;5031888;28;20240;-85
2022/06/24 11:19:18;;;;;;;6.47;2.58;;;;;;;;;;5031935;28;20647;-85
2022/06/24 11:21:52;;;;;;;2.20;1.98;;;;;;;;;;5046194;28;20245;-85
2022/06/24 11:24:30;;;;;;;2.53;2.33;;;;;;;;;;5051625;28;20201;-86
2022/06/24 11:27:05;;;;;;;3.60;2.67;;;;;;;;;;5051946;28;20213;-85
2022/06/24 11:29:46;;;;;;;2.97;2.20;;;;;;;;;;5051573;28;20759;-85
2022/06/24 11:32:13;;;;;;;2.83;2.30;;;;;;;;;;5051539;28;20225;-85
2022/06/24 11:34:40;;;;;;;3.57;2.60;;;;;;;;;;5051737;28;20279;-85
2022/06/24 11:37:13;;;;;;;2.60;2.40;;;;;;;;;;5051922;28;20197;-85
2022/06/24 11:39:42;;;;;;;2.60;2.08;;;;;;;;;;5051584;28;20198;-86
2022/06/24 11:42:09;;;;;;;2.80;2.05;;;;;;;;;;5051943;28;20194;-85
2022/06/24 11:44:40;;;;;;;2.13;2.03;;;;;;;;;;5051332;28;20282;-86
2022/06/24 11:47:16;;;;;;;3.70;2.20;;;;;;;;;;5051298;28;20201;-86
2022/06/24 11:49:44;;;;;;;6.10;2.60;;;;;;;;;;5051389;28;20204;-85
2022/06/24 11:52:23;;;;;;;2.55;2.20;;;;;;;;;;5051337;28;20225;-85
2022/06/24 11:54:55;;;;;;;2.55;2.10;;;;;;;;;;5051193;28;20206;-85
2022/06/24 11:57:28;;;;;;;2.42;2.25;;;;;;;;;;5051050;28;20202;-85
2022/06/24 11:59:57;;;;;;;3.45;2.72;;;;;;;;;;5051566;28;20714;-85
2022/06/24 12:02:24;;;;;;;3.42;3.05;;;;;;;;;;5051616;28;20575;-85
2022/06/24 12:05:00;;;;;;;3.53;2.65;;;;;;;;;;5051644;28;20194;-85
2022/06/24 12:07:30;;;;;;;3.05;2.70;;;;;;;;;;5051591;28;20193;-85
2022/06/24 12:09:59;;;;;;;3.78;2.95;;;;;;;;;;5055025;28;20193;-85
2022/06/24 12:12:26;;;;;;;3.58;2.42;;;;;;;;;;5055102;28;20226;-85
2022/06/24 12:15:12;;;;;;;2.25;2.15;;;;;;;;;;5055051;28;20205;-85
2022/06/24 12:17:51;;;;;;;2.40;2.20;;;;;;;;;;5055094;28;20208;-85
2022/06/24 12:20:22;;;;;;;2.25;2.05;;;;;;;;;;5054495;28;20263;-85
2022/06/24 12:23:19;;;;;;;2.90;2.40;;;;;;;;;;5055047;28;20232;-85
2022/06/24 12:25:50;;;;;;;2.13;2.03;;;;;;;;;;5054897;28;20655;-85
2022/06/24 12:28:19;;;;;;;2.17;1.98;;;;;;;;;;5054891;28;20206;-85
2022/06/24 12:30:57;;;;;;;4.40;2.13;;;;;;;;;;5054611;28;20202;-85
2022/06/24 12:33:31;;;;;;;2.85;2.60;;;;;;;;;;5054641;28;20256;-84
2022/06/24 12:36:10;;;;;;;3.13;2.83;;;;;;;;;;5054938;28;20197;-85
2022/06/24 12:38:39;;;;;;;6.25;2.95;;;;;;;;;;5054492;28;20193;-85
2022/06/24 12:41:28;;;;;;;4.07;2.55;;;;;;;;;;5054745;28;20732;-85
2022/06/24 12:43:57;;;;;;;4.15;2.88;;;;;;;;;;5043445;28;20675;-85
2022/06/24 12:50:35;;;;;;;2.75;2.15;;;;;;;;;;5054712;28;20205;-85
2022/06/24 12:52:36;;;;;;;4.67;3.37;;;;;;;;;;5054538;28;20205;-85
2022/06/24 12:55:17;;;;;;;4.07;3.53;;;;;;;;;;5054257;28;20202;-86
2022/06/24 12:57:52;;;;;;;3.27;3.07;;;;;;;;;;5054637;28;20205;-85
2022/06/24 13:00:19;;;;;;;4.23;3.00;;;;;;;;;;5054029;28;20197;-85
2022/06/24 13:02:48;;;;;;;2.80;2.60;;;;;;;;;;5054529;28;20247;-85
2022/06/24 13:05:23;;;;;;;2.97;2.70;;;;;;;;;;5053869;28;20231;-85
2022/06/24 13:07:51;;;;;;;3.20;2.47;;;;;;;;;;5054145;28;20205;-84
2022/06/24 13:10:18;;;;;;;2.97;2.77;;;;;;;;;;5054301;28;20190;-86
2022/06/24 13:12:45;;;;;;;3.93;3.20;;;;;;;;;;5054662;28;20218;-89
2022/06/24 13:15:14;;;;;;;3.23;2.93;;;;;;;;;;5055213;28;20207;-89
2022/06/24 13:17:48;;;;;;;3.70;2.90;;;;;;;;;;5054562;28;20212;-88
2022/06/24 13:20:15;;;;;;;3.83;3.10;;;;;;;;;;5052887;28;20571;-88
2022/06/24 13:22:43;;;;;;;3.23;2.87;;;;;;;;;;5053886;28;20178;-87
2022/06/24 13:25:11;;;;;;;3.57;3.00;;;;;;;;;;5053923;28;20190;-87
2022/06/24 13:27:42;;;;;;;2.90;2.70;;;;;;;;;;5054143;28;20194;-86
2022/06/24 13:30:11;;;;;;;3.57;3.27;;;;;;;;;;5053342;28;20209;-86
2022/06/24 13:32:40;;;;;;;3.30;3.00;;;;;;;;;;5053877;28;20366;-86
2022/06/24 13:35:19;;;;;;;3.23;2.93;;;;;;;;;;5053716;28;20185;-86
2022/06/24 13:37:46;;;;;;;2.90;2.70;;;;;;;;;;5053670;28;20196;-86
2022/06/24 13:40:20;;;;;;;2.50;2.40;;;;;;;;;;5053352;28;20202;-86
2022/06/24 13:42:53;;;;;;;3.73;2.33;;;;;;;;;;5053725;28;20216;-86
2022/06/24 13:45:25;;;;;;;4.87;1.93;;;;;;;;;;5053652;28;20202;-86
2022/06/24 13:47:54;;;;;;;2.13;2.03;;;;;;;;;;5053547;28;20202;-86
2022/06/24 13:50:21;;;;;;;2.33;2.13;;;;;;;;;;5053339;28;20213;-85
2022/06/24 13:52:52;;;;;;;5.13;2.47;;;;;;;;;;5053387;28;20272;-86
2022/06/24 13:55:28;;;;;;;2.30;2.10;;;;;;;;;;5053552;28;20259;-85
2022/06/24 13:57:55;;;;;;;2.87;2.67;;;;;;;;;;5053368;28;20248;-85
2022/06/24 14:00:22;;;;;;;2.83;2.63;;;;;;;;;;5053417;28;20691;-86
2022/06/24 14:02:52;;;;;;;3.23;3.03;;;;;;;;;;5053643;28;20625;-85
2022/06/24 14:05:21;;;;;;;3.80;3.40;;;;;;;;;;5053167;28;20198;-86
2022/06/24 14:07:50;;;;;;;3.27;3.07;;;;;;;;;;5053527;28;20197;-85
2022/06/24 14:10:18;;;;;;;2.83;2.63;;;;;;;;;;5053237;28;20193;-85
2022/06/24 14:12:47;;;;;;;3.57;3.27;;;;;;;;;;5052883;28;20218;-86
2022/06/24 14:15:20;;;;;;;4.70;3.33;;;;;;;;;;5052854;28;20198;-85
2022/06/24 14:17:54;;;;;;;4.97;3.70;;;;;;;;;;5052765;28;20198;-85
2022/06/24 14:20:29;;;;;;;4.43;3.30;;;;;;;;;;5052802;28;20202;-85
2022/06/24 14:25:46;;;;;;;3.57;3.27;;;;;;;;;;5052787;28;20177;-85
2022/06/24 14:28:32;;;;;;;4.80;3.30;;;;;;;;;;5052626;28;20198;-85
2022/06/24 14:31:07;;;;;;;3.50;3.20;;;;;;;;;;5052207;28;20204;-85
2022/06/24 14:33:34;;;;;;;4.03;3.13;;;;;;;;;;5052218;28;20217;-85
2022/06/24 14:36:03;;;;;;;5.40;3.50;;;;;;;;;;5052695;28;20213;-85
2022/06/24 14:41:33;;;;;;;4.37;3.70;;;;;;;;;;5052764;28;20297;-85
2022/06/24 14:44:00;;;;;;;3.73;3.50;;;;;;;;;;5052581;28;20620;-85
2022/06/24 14:46:30;;;;;;;3.97;3.60;;;;;;;;;;5052180;28;20196;-84
2022/06/24 14:49:04;;;;;;;5.07;3.20;;;;;;;;;;5052679;28;20578;-85
2022/06/24 14:51:39;;;;;;;3.27;3.07;;;;;;;;;;5052941;28;20275;-85
2022/06/24 14:54:31;;;;;;;3.40;3.10;;;;;;;;;;5052029;28;20223;-85
2022/06/24 14:57:07;;;;;;;4.53;3.20;;;;;;;;;;5052044;28;20194;-85
2022/06/24 14:59:40;;;;;;;3.80;3.43;;;;;;;;;;5052103;28;20673;-85
2022/06/24 15:02:08;;;;;;;4.73;4.13;;;;;;;;;;5052334;28;20205;-85
2022/06/24 15:04:37;;;;;;;3.10;2.90;;;;;;;;;;5051901;28;20198;-85
2022/06/24 15:07:18;;;;;;;3.70;3.50;;;;;;;;;;5052054;28;20194;-85
2022/06/24 15:09:45;;;;;;;4.53;3.97;;;;;;;;;;5052302;28;20200;-85
2022/06/24 15:12:18;;;;;;;5.13;3.60;;;;;;;;;;5052208;28;20752;-85
2022/06/24 15:14:45;;;;;;;3.73;3.43;;;;;;;;;;5052427;28;20204;-85
2022/06/24 15:17:16;;;;;;;4.23;3.83;;;;;;;;;;5052057;28;20552;-85
2022/06/24 15:19:53;;;;;;;4.80;4.43;;;;;;;;;;5051704;28;20233;-85
2022/06/24 15:22:28;;;;;;;6.37;5.87;;;;;;;;;;5051866;28;20236;-85
2022/06/24 15:24:55;;;;;;;4.07;3.77;;;;;;;;;;5051472;28;20193;-85
2022/06/24 15:27:25;;;;;;;3.73;3.43;;;;;;;;;;5052108;28;20201;-85
2022/06/24 15:29:58;;;;;;;5.10;3.33;;;;;;;;;;5051895;28;20201;-85
2022/06/24 15:32:32;;;;;;;3.80;3.50;;;;;;;;;;5051761;28;20732;-85